createdAt,value
2023-05-15T00:02:21.011Z,93.90
2023-05-15T00:04:47.826Z,92.63
2023-05-15T00:07:14.617Z,93.07
2023-05-15T00:09:41.247Z,93.63
2023-05-15T00:12:08.172Z,92.00
2023-05-15T00:14:34.809Z,93.22
2023-05-15T00:17:01.483Z,97.65
2023-05-15T00:19:28.108Z,93.65
2023-05-15T00:21:55.370Z,94.22
2023-05-15T00:24:22.306Z,96.32
2023-05-15T00:26:49.009Z,96.85
2023-05-15T00:29:15.633Z,99.50
2023-05-15T00:31:42.267Z,92.85
2023-05-15T00:34:08.920Z,92.13
2023-05-15T00:36:35.736Z,92.32
2023-05-15T00:39:02.584Z,96.22
2023-05-15T00:41:38.895Z,98.43
2023-05-15T00:44:07.006Z,93.18
2023-05-15T00:46:36.267Z,94.18
2023-05-15T00:49:07.005Z,93.53
2023-05-15T00:51:33.644Z,92.88
2023-05-15T00:54:00.338Z,92.97
2023-05-15T00:56:30.294Z,92.65
2023-05-15T00:58:59.678Z,94.78
2023-05-15T01:01:26.650Z,93.57
2023-05-15T01:03:53.623Z,95.60
2023-05-15T01:06:20.334Z,93.60
2023-05-15T01:08:48.031Z,93.95
2023-05-15T01:11:16.578Z,96.20
2023-05-15T01:13:44.389Z,95.10
2023-05-15T01:16:11.426Z,94.75
2023-05-15T01:18:38.332Z,96.00
2023-05-15T01:21:11.143Z,94.95
2023-05-15T01:24:20.537Z,94.32
2023-05-15T01:27:05.765Z,98.20
2023-05-15T01:29:44.374Z,92.18
2023-05-15T01:32:28.243Z,94.78
2023-05-15T01:35:13.881Z,93.22
2023-05-15T01:37:45.644Z,94.15
2023-05-15T01:40:15.041Z,94.03
2023-05-15T01:42:49.751Z,93.13
2023-05-15T01:45:17.981Z,96.82
2023-05-15T01:47:46.227Z,94.07
2023-05-15T01:50:16.240Z,93.93
2023-05-15T01:52:50.595Z,96.22
2023-05-15T01:55:18.648Z,93.53
2023-05-15T01:57:47.976Z,96.32
2023-05-15T02:00:15.700Z,97.80
2023-05-15T02:02:43.999Z,96.70
2023-05-15T02:05:12.134Z,95.18
2023-05-15T02:07:39.285Z,96.30
2023-05-15T02:10:06.599Z,93.60
2023-05-15T02:12:34.551Z,96.60
2023-05-15T02:15:03.824Z,93.95
2023-05-15T02:17:31.465Z,96.47
2023-05-15T02:19:58.131Z,94.40
2023-05-15T02:22:24.776Z,95.07
2023-05-15T02:24:51.465Z,97.32
2023-05-15T02:27:24.234Z,93.85
2023-05-15T02:30:29.440Z,94.70
2023-05-15T02:33:08.137Z,95.45
2023-05-15T02:35:56.859Z,95.75
2023-05-15T02:39:00.706Z,92.70
2023-05-15T02:41:27.937Z,95.90
2023-05-15T02:43:56.241Z,97.30
2023-05-15T02:46:25.161Z,95.18
2023-05-15T02:48:53.492Z,93.57
2023-05-15T02:51:20.910Z,94.50
2023-05-15T02:53:47.749Z,92.95
2023-05-15T02:56:14.364Z,93.82
2023-05-15T02:58:41.368Z,95.85
2023-05-15T03:01:08.181Z,94.90
2023-05-15T03:03:34.882Z,95.93
2023-05-15T03:06:01.547Z,94.25
2023-05-15T03:08:28.811Z,102.75
2023-05-15T03:10:55.545Z,98.25
2023-05-15T03:13:22.166Z,95.13
2023-05-15T03:15:48.804Z,95.40
2023-05-15T03:18:17.242Z,94.32
2023-05-15T03:20:45.570Z,94.63
2023-05-15T03:23:12.188Z,96.53
2023-05-15T03:25:38.791Z,99.18
2023-05-15T03:28:05.683Z,96.30
2023-05-15T03:30:32.292Z,95.63
2023-05-15T03:32:58.952Z,93.88
2023-05-15T03:35:26.343Z,97.78
2023-05-15T03:37:53.184Z,95.72
2023-05-15T03:40:19.852Z,94.85
2023-05-15T03:42:46.585Z,93.35
2023-05-15T03:45:13.184Z,99.63
2023-05-15T03:47:39.855Z,93.93
2023-05-15T03:50:06.956Z,94.82
2023-05-15T03:52:33.670Z,94.97
2023-05-15T03:55:00.894Z,94.03
2023-05-15T03:57:27.613Z,94.57
2023-05-15T03:59:54.207Z,94.28
2023-05-15T04:02:20.846Z,96.03
2023-05-15T04:04:47.449Z,93.82
2023-05-15T04:07:14.079Z,94.35
2023-05-15T04:09:40.666Z,97.25
2023-05-15T04:12:07.453Z,95.65
2023-05-15T04:14:34.059Z,97.22
2023-05-15T04:17:00.906Z,100.70
2023-05-15T04:19:27.532Z,96.53
2023-05-15T04:21:54.165Z,98.78
2023-05-15T04:24:20.944Z,97.50
2023-05-15T04:26:47.644Z,98.30
2023-05-15T04:29:14.319Z,95.50
2023-05-15T04:31:40.990Z,94.03
2023-05-15T04:34:07.710Z,96.03
2023-05-15T04:36:34.881Z,96.43
2023-05-15T04:39:01.607Z,95.13
2023-05-15T04:41:28.293Z,98.28
2023-05-15T04:43:54.975Z,94.32
2023-05-15T04:46:21.727Z,97.80
2023-05-15T04:48:48.403Z,96.10
2023-05-15T04:51:15.049Z,93.53
2023-05-15T04:53:41.663Z,96.10
2023-05-15T04:56:08.291Z,96.07
2023-05-15T04:58:34.905Z,96.43
2023-05-15T05:01:03.870Z,96.18
2023-05-15T05:03:31.137Z,94.43
2023-05-15T05:05:57.809Z,94.43
2023-05-15T05:08:24.439Z,99.30
2023-05-15T05:10:56.803Z,95.53
2023-05-15T05:13:23.630Z,94.70
2023-05-15T05:15:50.342Z,96.88
2023-05-15T05:18:16.958Z,93.35
2023-05-15T05:20:43.558Z,94.70
2023-05-15T05:23:10.211Z,95.88
2023-05-15T05:25:36.795Z,97.90
2023-05-15T05:28:03.460Z,96.45
2023-05-15T05:30:30.085Z,97.30
2023-05-15T05:32:56.727Z,102.25
2023-05-15T05:35:23.592Z,99.13
2023-05-15T05:37:50.360Z,96.07
2023-05-15T05:40:17.662Z,96.32
2023-05-15T05:42:44.273Z,98.50
2023-05-15T05:45:11.372Z,96.60
2023-05-15T05:47:38.051Z,96.70
2023-05-15T05:50:05.541Z,96.95
2023-05-15T05:52:32.121Z,94.97
2023-05-15T05:54:58.701Z,95.65
2023-05-15T05:57:25.505Z,94.68
2023-05-15T05:59:52.202Z,97.80
2023-05-15T06:02:19.009Z,95.70
2023-05-15T06:04:46.211Z,94.80
2023-05-15T06:07:12.996Z,92.63
2023-05-15T06:09:39.611Z,97.38
2023-05-15T06:12:08.150Z,97.93
2023-05-15T06:14:35.926Z,91.20
2023-05-15T06:17:03.071Z,91.05
2023-05-15T06:19:30.293Z,90.10
2023-05-15T06:21:57.021Z,90.03
2023-05-15T06:24:23.633Z,97.97
2023-05-15T06:26:50.645Z,89.80
2023-05-15T06:29:18.922Z,90.60
2023-05-15T06:31:45.570Z,87.70
2023-05-15T06:34:12.246Z,86.88
2023-05-15T06:36:38.949Z,85.93
2023-05-15T06:39:05.704Z,86.47
2023-05-15T06:41:35.922Z,84.97
2023-05-15T06:44:02.623Z,85.70
2023-05-15T06:46:29.417Z,84.00
2023-05-15T06:48:56.096Z,83.17
2023-05-15T06:51:22.776Z,82.60
2023-05-15T06:53:49.584Z,83.40
2023-05-15T06:56:16.226Z,84.60
2023-05-15T06:58:42.820Z,81.60
2023-05-15T07:01:09.801Z,81.37
2023-05-15T07:03:36.546Z,83.77
2023-05-15T07:06:03.273Z,80.97
2023-05-15T07:08:30.006Z,81.27
2023-05-15T07:10:56.671Z,80.30
2023-05-15T07:13:23.846Z,87.90
2023-05-15T07:15:50.496Z,79.93
2023-05-15T07:18:17.949Z,80.70
2023-05-15T07:20:44.994Z,82.47
2023-05-15T07:23:11.685Z,80.40
2023-05-15T07:25:38.398Z,80.30
2023-05-15T07:28:05.260Z,81.57
2023-05-15T07:30:31.888Z,82.77
2023-05-15T07:32:58.568Z,81.90
2023-05-15T07:35:26.054Z,82.97
2023-05-15T07:37:52.920Z,85.47
2023-05-15T07:40:19.585Z,83.57
2023-05-15T07:42:46.961Z,83.93
2023-05-15T07:45:13.674Z,83.70
2023-05-15T07:47:45.220Z,83.23
2023-05-15T07:50:11.915Z,86.80
2023-05-15T07:52:38.711Z,85.90
2023-05-15T07:55:05.952Z,85.13
2023-05-15T07:57:32.565Z,86.27
2023-05-15T07:59:59.434Z,86.97
2023-05-15T08:02:26.109Z,88.77
2023-05-15T08:04:52.758Z,85.90
2023-05-15T08:07:19.407Z,86.97
2023-05-15T08:09:46.355Z,85.20
2023-05-15T08:12:21.235Z,86.97
2023-05-15T08:14:52.946Z,86.33
2023-05-15T08:17:20.755Z,86.90
2023-05-15T08:19:48.425Z,87.17
2023-05-15T08:22:15.845Z,87.17
2023-05-15T08:24:42.677Z,86.40
2023-05-15T08:27:09.767Z,85.80
2023-05-15T08:29:38.672Z,88.60
2023-05-15T08:32:07.592Z,85.97
2023-05-15T08:34:34.299Z,86.27
2023-05-15T08:37:00.952Z,89.17
2023-05-15T08:39:27.604Z,86.20
2023-05-15T08:42:05.894Z,90.37
2023-05-15T08:44:33.172Z,87.70
2023-05-15T08:47:00.037Z,87.70
2023-05-15T08:49:35.929Z,86.90
2023-05-15T08:52:04.406Z,87.20
2023-05-15T08:54:31.379Z,85.57
2023-05-15T08:56:58.217Z,85.77
2023-05-15T08:59:24.910Z,86.17
2023-05-15T09:01:52.436Z,85.17
2023-05-15T09:04:19.343Z,88.20
2023-05-15T09:06:47.727Z,87.70
2023-05-15T09:09:14.763Z,88.80
2023-05-15T09:11:45.579Z,90.07
2023-05-15T09:14:12.296Z,91.67
2023-05-15T09:16:39.430Z,88.57
2023-05-15T09:19:07.012Z,89.90
2023-05-15T09:21:34.315Z,94.47
2023-05-15T09:24:37.749Z,89.10
2023-05-15T09:27:08.678Z,90.50
2023-05-15T09:29:37.652Z,88.70
2023-05-15T09:32:09.703Z,90.57
2023-05-15T09:34:38.782Z,94.10
2023-05-15T09:37:07.682Z,90.10
2023-05-15T09:39:42.106Z,88.03
2023-05-15T09:42:14.825Z,87.37
2023-05-15T09:44:45.868Z,93.67
2023-05-15T09:47:14.119Z,95.43
2023-05-15T09:49:44.331Z,94.67
2023-05-15T09:52:11.248Z,100.70
2023-05-15T09:54:38.429Z,92.27
2023-05-15T09:57:09.756Z,94.47
2023-05-15T09:59:36.392Z,96.20
2023-05-15T10:02:03.103Z,94.10
2023-05-15T10:04:35.721Z,99.60
2023-05-15T10:07:02.550Z,93.67
2023-05-15T10:09:32.723Z,91.50
2023-05-15T10:11:59.394Z,99.20
2023-05-15T10:14:27.767Z,99.70
2023-05-15T10:16:56.970Z,94.17
2023-05-15T10:19:26.353Z,96.97
2023-05-15T10:21:56.026Z,91.03
2023-05-15T10:24:25.499Z,93.50
2023-05-15T10:26:55.409Z,95.67
2023-05-15T10:29:24.104Z,98.70
2023-05-15T10:31:52.332Z,96.17
2023-05-15T10:34:19.798Z,98.73
2023-05-15T10:36:46.806Z,95.67
2023-05-15T10:39:13.632Z,102.15
2023-05-15T10:41:40.705Z,97.57
2023-05-15T10:44:08.022Z,94.10
2023-05-15T10:46:36.675Z,96.57
2023-05-15T10:49:04.348Z,94.80
2023-05-15T10:51:36.813Z,96.07
2023-05-15T10:54:03.843Z,106.40
2023-05-15T10:56:32.042Z,97.03
2023-05-15T10:59:05.130Z,97.57
2023-05-15T11:01:35.129Z,97.93
2023-05-15T11:04:09.257Z,95.50
2023-05-15T11:06:38.042Z,98.03
2023-05-15T11:09:23.126Z,99.10
2023-05-15T11:11:52.895Z,101.00
2023-05-15T11:14:20.137Z,98.90
2023-05-15T11:16:52.655Z,95.30
2023-05-15T11:19:36.876Z,91.67
2023-05-15T11:22:23.025Z,91.90
2023-05-15T11:24:52.687Z,89.00
2023-05-15T11:27:26.532Z,90.53
2023-05-15T11:30:11.483Z,91.77
2023-05-15T11:32:45.164Z,94.00
2023-05-15T11:35:13.979Z,90.40
2023-05-15T11:37:46.122Z,88.30
2023-05-15T11:40:18.625Z,89.87
2023-05-15T11:43:02.784Z,90.47
2023-05-15T11:45:35.436Z,97.10
2023-05-15T11:48:04.288Z,88.07
2023-05-15T11:50:32.788Z,88.30
2023-05-15T11:53:07.180Z,89.03
2023-05-15T11:55:35.531Z,87.80
2023-05-15T11:58:02.931Z,90.60
2023-05-15T12:00:29.760Z,88.43
2023-05-15T12:02:56.965Z,88.17
2023-05-15T12:05:23.727Z,89.10
2023-05-15T12:07:50.475Z,88.30
2023-05-15T12:10:17.449Z,87.40
2023-05-15T12:12:46.142Z,88.20
2023-05-15T12:15:14.421Z,95.10
2023-05-15T12:17:42.496Z,92.33
2023-05-15T12:20:14.657Z,88.10
2023-05-15T12:22:42.570Z,87.40
2023-05-15T12:25:11.405Z,88.00
2023-05-15T12:27:41.665Z,83.07
2023-05-15T12:30:10.865Z,85.57
2023-05-15T12:32:38.851Z,82.60
2023-05-15T12:35:06.010Z,83.43
2023-05-15T12:37:34.872Z,89.47
2023-05-15T12:40:11.670Z,86.17
2023-05-15T12:42:42.952Z,86.80
2023-05-15T12:45:14.656Z,85.20
2023-05-15T12:47:45.609Z,83.47
2023-05-15T12:50:22.723Z,83.70
2023-05-15T12:52:53.663Z,82.60
2023-05-15T12:55:28.106Z,83.00
2023-05-15T12:57:59.033Z,83.87
2023-05-15T13:00:26.210Z,87.50
2023-05-15T13:02:54.877Z,83.70
2023-05-15T13:05:25.521Z,84.80
2023-05-15T13:07:52.686Z,85.67
2023-05-15T13:10:23.980Z,84.60
2023-05-15T13:12:52.534Z,83.80
2023-05-15T13:15:25.441Z,84.77
2023-05-15T13:17:58.327Z,84.77
2023-05-15T13:20:25.510Z,85.07
2023-05-15T13:22:52.306Z,86.63
2023-05-15T13:25:21.004Z,96.20
2023-05-15T13:27:48.538Z,84.57
2023-05-15T13:30:16.361Z,83.97
2023-05-15T13:32:43.313Z,85.00
2023-05-15T13:35:10.752Z,84.40
2023-05-15T13:37:38.235Z,84.50
2023-05-15T13:40:06.839Z,87.80
2023-05-15T13:42:33.520Z,85.23
2023-05-15T13:45:00.243Z,85.73
2023-05-15T13:47:26.937Z,85.90
2023-05-15T13:49:53.570Z,85.57
2023-05-15T13:52:20.549Z,88.10
2023-05-15T13:54:47.253Z,84.97
2023-05-15T13:57:13.892Z,87.03
2023-05-15T13:59:40.508Z,83.80
2023-05-15T14:02:07.118Z,84.80
2023-05-15T14:04:33.714Z,84.73
2023-05-15T14:07:00.794Z,85.37
2023-05-15T14:09:28.455Z,84.87
2023-05-15T14:11:55.234Z,85.20
2023-05-15T14:14:22.019Z,85.17
2023-05-15T14:16:48.799Z,88.77
2023-05-15T14:19:15.671Z,84.77
2023-05-15T14:21:42.326Z,84.77
2023-05-15T14:24:09.063Z,85.60
2023-05-15T14:26:35.762Z,85.97
2023-05-15T14:29:02.412Z,84.00
2023-05-15T14:31:29.078Z,85.47
2023-05-15T14:33:55.922Z,85.53
2023-05-15T14:36:22.566Z,86.40
2023-05-15T14:38:49.263Z,84.97
2023-05-15T14:41:15.916Z,84.60
2023-05-15T14:43:42.538Z,84.10
2023-05-15T14:46:11.293Z,82.80
2023-05-15T14:48:38.152Z,83.50
2023-05-15T14:51:05.214Z,83.77
2023-05-15T14:53:31.966Z,86.40
2023-05-15T14:55:58.707Z,88.47
2023-05-15T14:58:25.387Z,85.53
2023-05-15T15:00:51.983Z,86.57
2023-05-15T15:03:22.132Z,86.17
2023-05-15T15:05:48.920Z,86.47
2023-05-15T15:08:15.758Z,90.57
2023-05-15T15:10:43.606Z,90.20
2023-05-15T15:13:12.893Z,86.87
2023-05-15T15:15:40.588Z,90.07
2023-05-15T15:18:07.744Z,87.17
2023-05-15T15:20:34.570Z,91.40
2023-05-15T15:23:01.181Z,89.00
2023-05-15T15:25:30.168Z,88.13
2023-05-15T15:28:02.311Z,88.37
2023-05-15T15:30:29.049Z,88.97
2023-05-15T15:32:55.837Z,87.90
2023-05-15T15:35:23.210Z,87.77
2023-05-15T15:37:49.956Z,89.50
2023-05-15T15:40:17.887Z,87.50
2023-05-15T15:42:44.858Z,88.10
2023-05-15T15:45:11.517Z,87.57
2023-05-15T15:47:38.211Z,87.87
2023-05-15T15:50:05.370Z,90.20
2023-05-15T15:52:31.994Z,86.97
2023-05-15T15:54:58.641Z,91.27
2023-05-15T15:57:25.478Z,88.03
2023-05-15T15:59:52.189Z,89.53
2023-05-15T16:02:19.054Z,86.40
2023-05-15T16:04:45.733Z,89.70
2023-05-15T16:07:12.383Z,92.60
2023-05-15T16:09:39.125Z,87.18
2023-05-15T16:12:05.932Z,87.90
2023-05-15T16:14:32.611Z,88.03
2023-05-15T16:16:59.269Z,86.67
2023-05-15T16:19:25.909Z,87.27
2023-05-15T16:21:52.691Z,86.53
2023-05-15T16:24:19.353Z,87.00
2023-05-15T16:26:46.047Z,88.60
2023-05-15T16:29:12.679Z,86.67
2023-05-15T16:31:39.431Z,86.47
2023-05-15T16:34:06.177Z,87.80
2023-05-15T16:36:32.844Z,88.80
2023-05-15T16:39:01.298Z,86.60
2023-05-15T16:41:28.060Z,88.23
2023-05-15T16:43:54.742Z,89.30
2023-05-15T16:46:21.594Z,88.07
2023-05-15T16:48:48.268Z,87.80
2023-05-15T16:51:14.927Z,87.70
2023-05-15T16:53:41.572Z,91.00
2023-05-15T16:56:08.285Z,97.37
2023-05-15T16:58:34.919Z,90.17
2023-05-15T17:01:01.544Z,90.10
2023-05-15T17:03:28.349Z,89.67
2023-05-15T17:05:55.218Z,91.03
2023-05-15T17:08:21.845Z,90.47
2023-05-15T17:10:48.571Z,89.57
2023-05-15T17:13:15.813Z,88.47
2023-05-15T17:15:42.540Z,88.30
2023-05-15T17:18:09.241Z,89.80
2023-05-15T17:20:35.869Z,90.83
2023-05-15T17:23:02.512Z,89.70
2023-05-15T17:25:29.216Z,91.00
2023-05-15T17:27:55.841Z,93.93
2023-05-15T17:30:22.756Z,95.53
2023-05-15T17:32:49.512Z,90.57
2023-05-15T17:35:16.134Z,91.93
2023-05-15T17:37:42.769Z,90.90
2023-05-15T17:40:09.697Z,90.00
2023-05-15T17:42:36.340Z,92.00
2023-05-15T17:45:03.687Z,92.17
2023-05-15T17:47:30.367Z,89.17
2023-05-15T17:49:57.317Z,88.43
2023-05-15T17:52:23.922Z,87.23
2023-05-15T17:54:50.714Z,91.80
2023-05-15T17:57:17.350Z,88.27
2023-05-15T17:59:44.004Z,88.70
2023-05-15T18:02:10.624Z,87.47
2023-05-15T18:04:37.268Z,89.83
2023-05-15T18:07:04.014Z,91.50
2023-05-15T18:09:30.656Z,91.23
2023-05-15T18:11:57.299Z,88.60
2023-05-15T18:14:23.921Z,89.33
2023-05-15T18:16:50.945Z,87.90
2023-05-15T18:19:18.066Z,88.30
2023-05-15T18:21:44.890Z,88.20
2023-05-15T18:24:11.528Z,88.00
2023-05-15T18:26:38.158Z,89.13
2023-05-15T18:29:05.299Z,86.43
2023-05-15T18:31:32.147Z,88.17
2023-05-15T18:34:00.382Z,90.10
2023-05-15T18:36:27.012Z,88.10
2023-05-15T18:38:53.695Z,89.70
2023-05-15T18:41:20.991Z,89.13
2023-05-15T18:43:47.634Z,91.72
2023-05-15T18:46:14.267Z,88.25
2023-05-15T18:48:40.985Z,90.82
2023-05-15T18:51:08.428Z,89.13
2023-05-15T18:53:35.059Z,88.38
2023-05-15T18:56:01.671Z,89.50
2023-05-15T18:58:28.275Z,91.93
2023-05-15T19:00:56.377Z,90.40
2023-05-15T19:03:23.096Z,91.13
2023-05-15T19:05:49.803Z,90.37
2023-05-15T19:08:16.442Z,92.20
2023-05-15T19:10:48.626Z,97.50
2023-05-15T19:13:15.236Z,91.35
2023-05-15T19:15:53.376Z,95.47
2023-05-15T19:18:20.272Z,93.40
2023-05-15T19:20:50.296Z,92.05
2023-05-15T19:23:17.181Z,90.85
2023-05-15T19:25:44.944Z,94.50
2023-05-15T19:28:12.891Z,93.38
2023-05-15T19:30:39.523Z,92.97
2023-05-15T19:33:06.229Z,97.18
2023-05-15T19:35:34.573Z,96.55
2023-05-15T19:38:02.538Z,95.53
2023-05-15T19:40:29.164Z,95.72
2023-05-15T19:42:55.771Z,93.65
2023-05-15T19:45:22.472Z,93.85
2023-05-15T19:47:49.090Z,91.95
2023-05-15T19:50:15.812Z,100.00
2023-05-15T19:52:45.212Z,95.65
2023-05-15T19:55:12.402Z,103.40
2023-05-15T19:57:40.198Z,95.22
2023-05-15T20:00:08.077Z,94.78
2023-05-15T20:02:34.855Z,100.57
2023-05-15T20:05:01.583Z,95.00
2023-05-15T20:07:28.213Z,94.63
2023-05-15T20:09:55.756Z,96.13
2023-05-15T20:12:22.388Z,94.82
2023-05-15T20:14:49.746Z,97.13
2023-05-15T20:17:17.238Z,96.25
2023-05-15T20:19:44.014Z,94.95
2023-05-15T20:22:10.820Z,97.55
2023-05-15T20:24:38.587Z,95.78
2023-05-15T20:27:05.573Z,99.20
2023-05-15T20:29:32.182Z,98.80
2023-05-15T20:31:59.656Z,98.30
2023-05-15T20:34:26.346Z,101.07
2023-05-15T20:36:54.386Z,106.03
2023-05-15T20:39:21.309Z,102.75
2023-05-15T20:41:48.165Z,102.10
2023-05-15T20:44:14.932Z,100.38
2023-05-15T20:46:43.476Z,98.68
2023-05-15T20:49:10.821Z,97.65
2023-05-15T20:51:37.984Z,101.97
2023-05-15T20:54:04.738Z,101.35
2023-05-15T20:56:31.354Z,101.35
2023-05-15T20:58:59.792Z,103.25
2023-05-15T21:01:26.679Z,102.50
2023-05-15T21:03:53.397Z,105.05
2023-05-15T21:06:20.083Z,99.00
2023-05-15T21:08:46.685Z,102.40
2023-05-15T21:11:13.404Z,100.45
2023-05-15T21:13:40.034Z,101.57
2023-05-15T21:16:06.964Z,102.40
2023-05-15T21:18:33.627Z,100.60
2023-05-15T21:21:00.537Z,104.10
2023-05-15T21:23:27.355Z,105.88
2023-05-15T21:25:53.974Z,104.80
2023-05-15T21:28:20.607Z,107.60
2023-05-15T21:30:47.322Z,108.90
2023-05-15T21:33:13.973Z,103.35
2023-05-15T21:35:40.690Z,103.68
2023-05-15T21:38:07.321Z,104.57
2023-05-15T21:40:34.427Z,105.00
2023-05-15T21:43:01.054Z,105.85
2023-05-15T21:45:27.683Z,103.38
2023-05-15T21:47:54.347Z,106.35
2023-05-15T21:50:21.019Z,103.85
2023-05-15T21:52:50.751Z,104.13
2023-05-15T21:55:18.084Z,104.22
2023-05-15T21:57:44.919Z,105.03
2023-05-15T22:00:11.828Z,105.78
2023-05-15T22:02:38.558Z,107.25
2023-05-15T22:05:05.737Z,106.78
2023-05-15T22:07:32.349Z,108.38
2023-05-15T22:09:59.121Z,105.25
2023-05-15T22:12:26.574Z,110.53
2023-05-15T22:14:58.769Z,107.57
2023-05-15T22:17:28.926Z,110.78
2023-05-15T22:20:02.540Z,111.00
2023-05-15T22:22:29.199Z,107.65
2023-05-15T22:24:55.925Z,110.80
2023-05-15T22:27:22.514Z,115.15
2023-05-15T22:29:49.264Z,112.20
2023-05-15T22:32:15.864Z,111.13
2023-05-15T22:34:42.520Z,111.60
2023-05-15T22:37:10.620Z,112.20
2023-05-15T22:39:37.220Z,117.43
2023-05-15T22:42:04.274Z,118.20
2023-05-15T22:44:30.918Z,113.18
2023-05-15T22:46:57.522Z,116.38
2023-05-15T22:49:25.387Z,113.65
2023-05-15T22:51:53.653Z,115.70
2023-05-15T22:54:21.773Z,113.88
2023-05-15T22:56:50.019Z,114.32
2023-05-15T22:59:16.733Z,114.05
2023-05-15T23:01:44.346Z,117.35
2023-05-15T23:04:11.636Z,116.55
2023-05-15T23:06:38.902Z,119.30
2023-05-15T23:09:05.634Z,120.53
2023-05-15T23:11:32.253Z,120.05
2023-05-15T23:13:59.038Z,120.28
2023-05-15T23:16:26.035Z,117.80
2023-05-15T23:18:55.338Z,119.18
2023-05-15T23:21:22.038Z,117.25
2023-05-15T23:23:48.664Z,135.35
2023-05-15T23:26:15.459Z,118.63
2023-05-15T23:28:42.072Z,123.85
2023-05-15T23:31:09.841Z,126.80
2023-05-15T23:33:36.831Z,122.45
2023-05-15T23:36:03.583Z,119.60
2023-05-15T23:38:30.378Z,123.65
2023-05-15T23:40:57.016Z,121.00
2023-05-15T23:43:23.669Z,123.00
2023-05-15T23:45:50.318Z,120.45
2023-05-15T23:48:17.087Z,122.60
2023-05-15T23:50:44.074Z,124.50
2023-05-15T23:53:10.978Z,124.82
2023-05-15T23:55:37.830Z,126.10
2023-05-15T23:58:04.558Z,119.35
